sensor_id;sensor_type;location;lat;lon;timestamp;P1;durP1;ratioP1;P2;durP2;ratioP2
22113;SDS011;11223;49.968;9.062;2022-07-01T00:02:04;1.10;;;0.90;;
22113;SDS011;11223;49.968;9.062;2022-07-01T00:05:21;2.15;;;0.80;;
22113;SDS011;11223;49.968;9.062;2022-07-01T00:08:47;3.45;;;1.08;;
22113;SDS011;11223;49.968;9.062;2022-07-01T00:12:13;1.20;;;1.10;;
22113;SDS011;11223;49.968;9.062;2022-07-01T00:15:40;1.45;;;1.05;;
22113;SDS011;11223;49.968;9.062;2022-07-01T00:19:06;1.77;;;1.00;;
22113;SDS011;11223;49.968;9.062;2022-07-01T00:22:32;2.53;;;0.80;;
22113;SDS011;11223;49.968;9.062;2022-07-01T00:25:38;1.60;;;1.08;;
22113;SDS011;11223;49.968;9.062;2022-07-01T00:29:05;2.17;;;0.90;;
22113;SDS011;11223;49.968;9.062;2022-07-01T00:35:18;1.10;;;1.00;;
22113;SDS011;11223;49.968;9.062;2022-07-01T00:38:45;1.85;;;1.00;;
22113;SDS011;11223;49.968;9.062;2022-07-01T00:42:11;1.73;;;0.90;;
22113;SDS011;11223;49.968;9.062;2022-07-01T00:45:16;0.90;;;0.90;;
22113;SDS011;11223;49.968;9.062;2022-07-01T00:48:44;2.20;;;0.90;;
22113;SDS011;11223;49.968;9.062;2022-07-01T00:52:10;3.17;;;1.10;;
22113;SDS011;11223;49.968;9.062;2022-07-01T00:55:36;1.60;;;0.80;;
22113;SDS011;11223;49.968;9.062;2022-07-01T00:59:03;2.00;;;0.90;;
22113;SDS011;11223;49.968;9.062;2022-07-01T01:05:55;1.17;;;0.90;;
22113;SDS011;11223;49.968;9.062;2022-07-01T01:09:03;1.75;;;1.00;;
22113;SDS011;11223;49.968;9.062;2022-07-01T01:15:45;1.63;;;1.52;;
22113;SDS011;11223;49.968;9.062;2022-07-01T01:19:04;1.45;;;1.00;;
22113;SDS011;11223;49.968;9.062;2022-07-01T01:22:28;1.63;;;0.80;;
22113;SDS011;11223;49.968;9.062;2022-07-01T01:25:45;1.60;;;1.00;;
22113;SDS011;11223;49.968;9.062;2022-07-01T01:29:01;1.00;;;0.90;;
22113;SDS011;11223;49.968;9.062;2022-07-01T01:32:27;1.88;;;0.90;;
22113;SDS011;11223;49.968;9.062;2022-07-01T01:35:34;1.10;;;0.90;;
22113;SDS011;11223;49.968;9.062;2022-07-01T01:39:00;3.38;;;1.33;;
22113;SDS011;11223;49.968;9.062;2022-07-01T01:42:26;1.48;;;0.90;;
22113;SDS011;11223;49.968;9.062;2022-07-01T01:45:53;1.75;;;1.00;;
22113;SDS011;11223;49.968;9.062;2022-07-01T01:48:39;2.13;;;1.15;;
22113;SDS011;11223;49.968;9.062;2022-07-01T01:51:46;3.25;;;1.13;;
22113;SDS011;11223;49.968;9.062;2022-07-01T01:55:12;1.05;;;0.82;;
22113;SDS011;11223;49.968;9.062;2022-07-01T01:58:17;2.10;;;1.50;;
22113;SDS011;11223;49.968;9.062;2022-07-01T02:01:45;1.33;;;0.88;;
22113;SDS011;11223;49.968;9.062;2022-07-01T02:05:12;1.80;;;1.10;;
22113;SDS011;11223;49.968;9.062;2022-07-01T02:08:38;1.77;;;1.15;;
22113;SDS011;11223;49.968;9.062;2022-07-01T02:12:04;1.15;;;1.05;;
22113;SDS011;11223;49.968;9.062;2022-07-01T02:15:30;1.80;;;0.90;;
22113;SDS011;11223;49.968;9.062;2022-07-01T02:18:56;1.23;;;1.00;;
22113;SDS011;11223;49.968;9.062;2022-07-01T02:22:22;1.33;;;1.20;;
22113;SDS011;11223;49.968;9.062;2022-07-01T02:25:39;1.30;;;1.20;;
22113;SDS011;11223;49.968;9.062;2022-07-01T02:29:06;1.10;;;0.93;;
22113;SDS011;11223;49.968;9.062;2022-07-01T02:32:32;1.65;;;1.55;;
22113;SDS011;11223;49.968;9.062;2022-07-01T02:35:59;3.75;;;1.45;;
22113;SDS011;11223;49.968;9.062;2022-07-01T02:39:25;2.40;;;1.20;;
22113;SDS011;11223;49.968;9.062;2022-07-01T02:42:51;1.45;;;1.08;;
22113;SDS011;11223;49.968;9.062;2022-07-01T02:46:17;1.35;;;1.23;;
22113;SDS011;11223;49.968;9.062;2022-07-01T02:49:23;1.20;;;1.00;;
22113;SDS011;11223;49.968;9.062;2022-07-01T02:52:50;2.90;;;1.30;;
22113;SDS011;11223;49.968;9.062;2022-07-01T02:56:17;3.05;;;1.60;;
22113;SDS011;11223;49.968;9.062;2022-07-01T02:59:43;3.15;;;1.23;;
22113;SDS011;11223;49.968;9.062;2022-07-01T03:03:09;2.00;;;1.20;;
22113;SDS011;11223;49.968;9.062;2022-07-01T03:06:35;1.70;;;1.40;;
22113;SDS011;11223;49.968;9.062;2022-07-01T03:09:52;1.73;;;1.45;;
22113;SDS011;11223;49.968;9.062;2022-07-01T03:12:18;1.40;;;1.30;;
22113;SDS011;11223;49.968;9.062;2022-07-01T03:15:35;1.77;;;1.55;;
22113;SDS011;11223;49.968;9.062;2022-07-01T03:19:02;2.00;;;1.50;;
22113;SDS011;11223;49.968;9.062;2022-07-01T03:22:29;2.30;;;1.25;;
22113;SDS011;11223;49.968;9.062;2022-07-01T03:25:54;1.35;;;1.20;;
22113;SDS011;11223;49.968;9.062;2022-07-01T03:29:21;1.50;;;1.10;;
22113;SDS011;11223;49.968;9.062;2022-07-01T03:32:47;1.83;;;1.20;;
22113;SDS011;11223;49.968;9.062;2022-07-01T03:35:54;1.45;;;1.05;;
22113;SDS011;11223;49.968;9.062;2022-07-01T03:38:50;2.30;;;1.10;;
22113;SDS011;11223;49.968;9.062;2022-07-01T03:45:24;1.23;;;1.00;;
22113;SDS011;11223;49.968;9.062;2022-07-01T03:48:30;1.20;;;0.77;;
22113;SDS011;11223;49.968;9.062;2022-07-01T03:51:56;1.17;;;1.00;;
22113;SDS011;11223;49.968;9.062;2022-07-01T04:01:56;1.90;;;1.08;;
22113;SDS011;11223;49.968;9.062;2022-07-01T04:05:22;1.33;;;1.05;;
22113;SDS011;11223;49.968;9.062;2022-07-01T04:08:49;2.22;;;1.20;;
22113;SDS011;11223;49.968;9.062;2022-07-01T04:12:15;1.60;;;1.00;;
22113;SDS011;11223;49.968;9.062;2022-07-01T04:15:41;1.50;;;1.20;;
22113;SDS011;11223;49.968;9.062;2022-07-01T04:19:08;1.35;;;1.08;;
22113;SDS011;11223;49.968;9.062;2022-07-01T04:22:34;2.75;;;1.10;;
22113;SDS011;11223;49.968;9.062;2022-07-01T04:26:00;1.35;;;1.00;;
22113;SDS011;11223;49.968;9.062;2022-07-01T04:29:27;1.48;;;1.00;;
22113;SDS011;11223;49.968;9.062;2022-07-01T04:32:53;1.50;;;1.40;;
22113;SDS011;11223;49.968;9.062;2022-07-01T04:35:59;2.28;;;1.20;;
22113;SDS011;11223;49.968;9.062;2022-07-01T04:39:26;1.10;;;1.00;;
22113;SDS011;11223;49.968;9.062;2022-07-01T04:42:52;2.17;;;1.25;;
22113;SDS011;11223;49.968;9.062;2022-07-01T04:45:59;1.35;;;1.25;;
22113;SDS011;11223;49.968;9.062;2022-07-01T04:49:25;1.20;;;1.10;;
22113;SDS011;11223;49.968;9.062;2022-07-01T04:52:51;1.20;;;1.10;;
22113;SDS011;11223;49.968;9.062;2022-07-01T04:56:18;1.67;;;1.55;;
22113;SDS011;11223;49.968;9.062;2022-07-01T04:59:44;2.92;;;1.40;;
22113;SDS011;11223;49.968;9.062;2022-07-01T05:03:10;1.20;;;1.10;;
22113;SDS011;11223;49.968;9.062;2022-07-01T05:06:36;1.50;;;1.38;;
22113;SDS011;11223;49.968;9.062;2022-07-01T05:10:03;1.50;;;1.40;;
22113;SDS011;11223;49.968;9.062;2022-07-01T05:13:29;1.98;;;1.40;;
22113;SDS011;11223;49.968;9.062;2022-07-01T05:20:22;1.40;;;0.93;;
22113;SDS011;11223;49.968;9.062;2022-07-01T05:23:36;1.90;;;1.42;;
22113;SDS011;11223;49.968;9.062;2022-07-01T05:27:03;1.50;;;1.40;;
22113;SDS011;11223;49.968;9.062;2022-07-01T05:30:20;1.67;;;1.17;;
22113;SDS011;11223;49.968;9.062;2022-07-01T05:33:46;1.45;;;1.30;;
22113;SDS011;11223;49.968;9.062;2022-07-01T05:37:13;1.40;;;1.30;;
22113;SDS011;11223;49.968;9.062;2022-07-01T05:40:39;1.55;;;1.45;;
22113;SDS011;11223;49.968;9.062;2022-07-01T05:44:05;1.95;;;1.00;;
22113;SDS011;11223;49.968;9.062;2022-07-01T05:47:31;2.10;;;1.10;;
22113;SDS011;11223;49.968;9.062;2022-07-01T05:50:58;1.58;;;1.48;;
22113;SDS011;11223;49.968;9.062;2022-07-01T05:54:24;2.55;;;1.60;;
22113;SDS011;11223;49.968;9.062;2022-07-01T05:57:31;1.45;;;1.35;;
22113;SDS011;11223;49.968;9.062;2022-07-01T06:04:13;2.40;;;1.45;;
22113;SDS011;11223;49.968;9.062;2022-07-01T06:07:20;2.25;;;1.30;;
22113;SDS011;11223;49.968;9.062;2022-07-01T06:10:46;1.30;;;1.10;;
22113;SDS011;11223;49.968;9.062;2022-07-01T06:14:13;1.00;;;0.90;;
22113;SDS011;11223;49.968;9.062;2022-07-01T06:17:19;1.45;;;1.23;;
22113;SDS011;11223;49.968;9.062;2022-07-01T06:20:26;1.40;;;1.30;;
22113;SDS011;11223;49.968;9.062;2022-07-01T06:23:52;1.20;;;1.10;;
22113;SDS011;11223;49.968;9.062;2022-07-01T06:26:49;1.55;;;1.13;;
22113;SDS011;11223;49.968;9.062;2022-07-01T06:36:09;2.38;;;1.20;;
22113;SDS011;11223;49.968;9.062;2022-07-01T06:39:14;1.98;;;1.40;;
22113;SDS011;11223;49.968;9.062;2022-07-01T06:52:12;1.90;;;1.60;;
22113;SDS011;11223;49.968;9.062;2022-07-01T06:55:38;1.40;;;1.20;;
22113;SDS011;11223;49.968;9.062;2022-07-01T06:59:05;2.85;;;1.30;;
22113;SDS011;11223;49.968;9.062;2022-07-01T07:02:31;3.28;;;1.20;;
22113;SDS011;11223;49.968;9.062;2022-07-01T07:05:58;2.08;;;1.27;;
22113;SDS011;11223;49.968;9.062;2022-07-01T07:09:04;1.48;;;1.10;;
22113;SDS011;11223;49.968;9.062;2022-07-01T07:12:11;2.40;;;1.30;;
22113;SDS011;11223;49.968;9.062;2022-07-01T07:15:16;1.77;;;1.50;;
22113;SDS011;11223;49.968;9.062;2022-07-01T07:18:14;1.50;;;1.40;;
22113;SDS011;11223;49.968;9.062;2022-07-01T07:23:56;2.42;;;1.60;;
22113;SDS011;11223;49.968;9.062;2022-07-01T07:27:24;1.55;;;1.38;;
22113;SDS011;11223;49.968;9.062;2022-07-01T07:30:50;2.65;;;1.58;;
22113;SDS011;11223;49.968;9.062;2022-07-01T07:34:16;1.30;;;1.20;;
22113;SDS011;11223;49.968;9.062;2022-07-01T07:37:43;2.55;;;1.52;;
22113;SDS011;11223;49.968;9.062;2022-07-01T07:41:09;3.38;;;1.70;;
22113;SDS011;11223;49.968;9.062;2022-07-01T07:44:36;2.30;;;2.10;;
22113;SDS011;11223;49.968;9.062;2022-07-01T07:47:43;2.72;;;1.90;;
22113;SDS011;11223;49.968;9.062;2022-07-01T07:50:48;4.82;;;1.67;;
22113;SDS011;11223;49.968;9.062;2022-07-01T07:54:05;3.58;;;2.13;;
22113;SDS011;11223;49.968;9.062;2022-07-01T08:00:09;2.50;;;1.90;;
22113;SDS011;11223;49.968;9.062;2022-07-01T08:03:04;1.90;;;1.80;;
22113;SDS011;11223;49.968;9.062;2022-07-01T08:06:01;3.60;;;2.05;;
22113;SDS011;11223;49.968;9.062;2022-07-01T08:09:19;1.90;;;1.75;;
22113;SDS011;11223;49.968;9.062;2022-07-01T08:12:35;2.00;;;1.90;;
22113;SDS011;11223;49.968;9.062;2022-07-01T08:15:52;2.55;;;2.33;;
22113;SDS011;11223;49.968;9.062;2022-07-01T08:19:19;3.47;;;2.60;;
22113;SDS011;11223;49.968;9.062;2022-07-01T08:22:35;2.53;;;2.10;;
22113;SDS011;11223;49.968;9.062;2022-07-01T08:26:02;2.95;;;1.92;;
22113;SDS011;11223;49.968;9.062;2022-07-01T08:29:28;3.38;;;2.30;;
22113;SDS011;11223;49.968;9.062;2022-07-01T08:32:33;3.58;;;2.60;;
22113;SDS011;11223;49.968;9.062;2022-07-01T08:36:00;2.53;;;2.33;;
22113;SDS011;11223;49.968;9.062;2022-07-01T08:39:07;3.28;;;2.40;;
22113;SDS011;11223;49.968;9.062;2022-07-01T08:42:34;5.47;;;2.88;;
22113;SDS011;11223;49.968;9.062;2022-07-01T08:49:05;3.38;;;2.20;;
22113;SDS011;11223;49.968;9.062;2022-07-01T08:52:33;2.60;;;2.40;;
22113;SDS011;11223;49.968;9.062;2022-07-01T08:56:00;3.40;;;2.80;;
22113;SDS011;11223;49.968;9.062;2022-07-01T08:59:03;3.83;;;2.67;;
22113;SDS011;11223;49.968;9.062;2022-07-01T09:08:53;2.67;;;2.47;;
22113;SDS011;11223;49.968;9.062;2022-07-01T09:12:20;2.53;;;2.33;;
22113;SDS011;11223;49.968;9.062;2022-07-01T09:22:56;3.45;;;2.55;;
22113;SDS011;11223;49.968;9.062;2022-07-01T09:26:18;3.95;;;2.28;;
22113;SDS011;11223;49.968;9.062;2022-07-01T09:29:39;4.30;;;2.55;;
22113;SDS011;11223;49.968;9.062;2022-07-01T09:33:06;3.85;;;2.85;;
22113;SDS011;11223;49.968;9.062;2022-07-01T09:36:22;3.45;;;3.25;;
22113;SDS011;11223;49.968;9.062;2022-07-01T09:39:48;2.83;;;2.63;;
22113;SDS011;11223;49.968;9.062;2022-07-01T09:43:15;3.95;;;3.00;;
22113;SDS011;11223;49.968;9.062;2022-07-01T09:49:12;3.38;;;3.08;;
22113;SDS011;11223;49.968;9.062;2022-07-01T09:52:38;4.15;;;2.90;;
22113;SDS011;11223;49.968;9.062;2022-07-01T09:56:05;4.10;;;3.58;;
22113;SDS011;11223;49.968;9.062;2022-07-01T09:59:10;4.55;;;3.78;;
22113;SDS011;11223;49.968;9.062;2022-07-01T10:02:34;3.47;;;3.22;;
22113;SDS011;11223;49.968;9.062;2022-07-01T10:13:08;5.18;;;3.80;;
22113;SDS011;11223;49.968;9.062;2022-07-01T10:16:35;4.68;;;4.28;;
22113;SDS011;11223;49.968;9.062;2022-07-01T10:20:26;5.38;;;4.38;;
22113;SDS011;11223;49.968;9.062;2022-07-01T10:30:22;4.60;;;4.20;;
22113;SDS011;11223;49.968;9.062;2022-07-01T10:37:17;4.35;;;3.95;;
22113;SDS011;11223;49.968;9.062;2022-07-01T10:44:28;3.97;;;3.60;;
22113;SDS011;11223;49.968;9.062;2022-07-01T10:47:33;3.42;;;3.17;;
22113;SDS011;11223;49.968;9.062;2022-07-01T10:50:59;4.15;;;3.72;;
22113;SDS011;11223;49.968;9.062;2022-07-01T11:01:51;3.50;;;3.20;;
22113;SDS011;11223;49.968;9.062;2022-07-01T11:08:56;3.35;;;2.60;;
22113;SDS011;11223;49.968;9.062;2022-07-01T11:11:56;4.45;;;3.42;;
22113;SDS011;11223;49.968;9.062;2022-07-01T11:15:32;4.30;;;2.80;;
22113;SDS011;11223;49.968;9.062;2022-07-01T11:18:59;3.10;;;2.80;;
22113;SDS011;11223;49.968;9.062;2022-07-01T11:22:26;3.67;;;2.65;;
22113;SDS011;11223;49.968;9.062;2022-07-01T11:25:52;2.88;;;2.25;;
22113;SDS011;11223;49.968;9.062;2022-07-01T11:29:42;2.75;;;2.55;;
22113;SDS011;11223;49.968;9.062;2022-07-01T11:32:51;2.95;;;2.45;;
22113;SDS011;11223;49.968;9.062;2022-07-01T11:36:22;3.55;;;2.50;;
22113;SDS011;11223;49.968;9.062;2022-07-01T11:39:46;2.60;;;2.40;;
22113;SDS011;11223;49.968;9.062;2022-07-01T11:43:37;3.58;;;2.80;;
22113;SDS011;11223;49.968;9.062;2022-07-01T11:47:23;3.10;;;2.70;;
22113;SDS011;11223;49.968;9.062;2022-07-01T11:53:03;3.33;;;2.03;;
22113;SDS011;11223;49.968;9.062;2022-07-01T11:56:30;2.40;;;2.20;;
22113;SDS011;11223;49.968;9.062;2022-07-01T11:59:36;3.40;;;2.20;;
22113;SDS011;11223;49.968;9.062;2022-07-01T12:03:02;2.05;;;1.85;;
22113;SDS011;11223;49.968;9.062;2022-07-01T12:06:29;2.40;;;1.80;;
22113;SDS011;11223;49.968;9.062;2022-07-01T12:09:55;2.80;;;1.80;;
22113;SDS011;11223;49.968;9.062;2022-07-01T12:13:21;1.80;;;1.70;;
22113;SDS011;11223;49.968;9.062;2022-07-01T12:16:50;2.35;;;1.80;;
22113;SDS011;11223;49.968;9.062;2022-07-01T12:27:21;3.80;;;1.80;;
22113;SDS011;11223;49.968;9.062;2022-07-01T12:30:45;2.90;;;2.05;;
22113;SDS011;11223;49.968;9.062;2022-07-01T12:33:50;2.22;;;1.55;;
22113;SDS011;11223;49.968;9.062;2022-07-01T12:37:17;3.85;;;1.52;;
22113;SDS011;11223;49.968;9.062;2022-07-01T12:40:45;1.80;;;1.33;;
22113;SDS011;11223;49.968;9.062;2022-07-01T12:44:43;1.80;;;1.70;;
22113;SDS011;11223;49.968;9.062;2022-07-01T12:54:27;4.18;;;1.60;;
22113;SDS011;11223;49.968;9.062;2022-07-01T12:57:38;3.28;;;1.42;;
22113;SDS011;11223;49.968;9.062;2022-07-01T13:01:04;2.13;;;1.65;;
22113;SDS011;11223;49.968;9.062;2022-07-01T13:04:31;2.95;;;1.30;;
22113;SDS011;11223;49.968;9.062;2022-07-01T13:07:48;2.28;;;1.20;;
22113;SDS011;11223;49.968;9.062;2022-07-01T13:11:13;1.55;;;0.90;;
22113;SDS011;11223;49.968;9.062;2022-07-01T13:14:40;1.42;;;1.20;;
22113;SDS011;11223;49.968;9.062;2022-07-01T13:18:06;2.25;;;1.52;;
22113;SDS011;11223;49.968;9.062;2022-07-01T13:21:33;2.40;;;1.40;;
22113;SDS011;11223;49.968;9.062;2022-07-01T13:24:59;2.78;;;1.55;;
22113;SDS011;11223;49.968;9.062;2022-07-01T13:28:25;3.33;;;1.30;;
22113;SDS011;11223;49.968;9.062;2022-07-01T13:31:52;2.05;;;1.23;;
22113;SDS011;11223;49.968;9.062;2022-07-01T13:34:58;1.92;;;1.20;;
22113;SDS011;11223;49.968;9.062;2022-07-01T13:38:04;2.20;;;1.42;;
22113;SDS011;11223;49.968;9.062;2022-07-01T13:41:30;2.85;;;1.08;;
22113;SDS011;11223;49.968;9.062;2022-07-01T13:44:37;1.75;;;1.35;;
22113;SDS011;11223;49.968;9.062;2022-07-01T13:48:03;2.55;;;1.60;;
22113;SDS011;11223;49.968;9.062;2022-07-01T13:51:10;2.55;;;1.17;;
22113;SDS011;11223;49.968;9.062;2022-07-01T13:54:36;1.98;;;1.10;;
22113;SDS011;11223;49.968;9.062;2022-07-01T13:58:03;1.63;;;1.08;;
22113;SDS011;11223;49.968;9.062;2022-07-01T14:01:30;1.95;;;1.05;;
22113;SDS011;11223;49.968;9.062;2022-07-01T14:04:25;2.42;;;1.50;;
22113;SDS011;11223;49.968;9.062;2022-07-01T14:07:32;3.17;;;1.20;;
22113;SDS011;11223;49.968;9.062;2022-07-01T14:10:59;1.25;;;1.10;;
22113;SDS011;11223;49.968;9.062;2022-07-01T14:14:25;2.47;;;1.23;;
22113;SDS011;11223;49.968;9.062;2022-07-01T14:17:51;2.03;;;1.10;;
22113;SDS011;11223;49.968;9.062;2022-07-01T14:21:18;1.48;;;1.10;;
22113;SDS011;11223;49.968;9.062;2022-07-01T14:24:44;1.45;;;1.17;;
22113;SDS011;11223;49.968;9.062;2022-07-01T14:28:10;2.22;;;1.35;;
22113;SDS011;11223;49.968;9.062;2022-07-01T14:31:36;1.83;;;1.27;;
22113;SDS011;11223;49.968;9.062;2022-07-01T14:35:02;1.30;;;1.20;;
22113;SDS011;11223;49.968;9.062;2022-07-01T14:38:29;2.08;;;1.30;;
22113;SDS011;11223;49.968;9.062;2022-07-01T14:41:55;2.50;;;1.00;;
22113;SDS011;11223;49.968;9.062;2022-07-01T14:48:39;7.70;;;1.20;;
22113;SDS011;11223;49.968;9.062;2022-07-01T14:51:44;1.75;;;1.50;;
22113;SDS011;11223;49.968;9.062;2022-07-01T14:55:12;2.75;;;1.60;;
22113;SDS011;11223;49.968;9.062;2022-07-01T14:58:38;3.95;;;1.40;;
22113;SDS011;11223;49.968;9.062;2022-07-01T15:05:22;2.60;;;1.48;;
22113;SDS011;11223;49.968;9.062;2022-07-01T15:08:29;3.60;;;1.30;;
22113;SDS011;11223;49.968;9.062;2022-07-01T15:12:12;1.55;;;1.02;;
22113;SDS011;11223;49.968;9.062;2022-07-01T15:15:38;1.70;;;1.10;;
22113;SDS011;11223;49.968;9.062;2022-07-01T15:18:43;1.88;;;1.27;;
22113;SDS011;11223;49.968;9.062;2022-07-01T15:22:11;1.52;;;1.02;;
22113;SDS011;11223;49.968;9.062;2022-07-01T15:28:34;2.60;;;0.90;;
22113;SDS011;11223;49.968;9.062;2022-07-01T15:31:50;1.92;;;1.13;;
22113;SDS011;11223;49.968;9.062;2022-07-01T15:35:17;4.22;;;1.00;;
22113;SDS011;11223;49.968;9.062;2022-07-01T15:41:29;3.33;;;0.93;;
22113;SDS011;11223;49.968;9.062;2022-07-01T15:44:49;3.80;;;0.90;;
22113;SDS011;11223;49.968;9.062;2022-07-01T15:48:15;2.33;;;1.00;;
22113;SDS011;11223;49.968;9.062;2022-07-01T15:51:22;1.83;;;1.20;;
22113;SDS011;11223;49.968;9.062;2022-07-01T15:54:48;1.80;;;1.10;;
22113;SDS011;11223;49.968;9.062;2022-07-01T15:58:05;1.90;;;1.03;;
22113;SDS011;11223;49.968;9.062;2022-07-01T16:01:11;1.35;;;0.90;;
22113;SDS011;11223;49.968;9.062;2022-07-01T16:04:38;2.30;;;0.93;;
22113;SDS011;11223;49.968;9.062;2022-07-01T16:08:05;1.97;;;0.90;;
22113;SDS011;11223;49.968;9.062;2022-07-01T16:11:14;1.00;;;0.70;;
22113;SDS011;11223;49.968;9.062;2022-07-01T16:14:40;5.82;;;1.45;;
22113;SDS011;11223;49.968;9.062;2022-07-01T16:18:07;1.30;;;0.90;;
22113;SDS011;11223;49.968;9.062;2022-07-01T16:21:32;1.45;;;0.98;;
22113;SDS011;11223;49.968;9.062;2022-07-01T16:24:58;1.58;;;1.13;;
22113;SDS011;11223;49.968;9.062;2022-07-01T16:28:25;2.53;;;1.15;;
22113;SDS011;11223;49.968;9.062;2022-07-01T16:31:33;1.77;;;0.80;;
22113;SDS011;11223;49.968;9.062;2022-07-01T16:34:59;1.13;;;0.90;;
22113;SDS011;11223;49.968;9.062;2022-07-01T16:38:00;3.50;;;1.33;;
22113;SDS011;11223;49.968;9.062;2022-07-01T16:47:40;2.00;;;0.80;;
22113;SDS011;11223;49.968;9.062;2022-07-01T16:50:59;6.15;;;1.05;;
22113;SDS011;11223;49.968;9.062;2022-07-01T16:54:25;3.95;;;1.10;;
22113;SDS011;11223;49.968;9.062;2022-07-01T16:57:51;2.65;;;1.05;;
22113;SDS011;11223;49.968;9.062;2022-07-01T17:01:17;1.00;;;0.90;;
22113;SDS011;11223;49.968;9.062;2022-07-01T17:04:44;2.55;;;1.25;;
22113;SDS011;11223;49.968;9.062;2022-07-01T17:10:36;3.05;;;1.35;;
22113;SDS011;11223;49.968;9.062;2022-07-01T17:13:45;1.73;;;1.50;;
22113;SDS011;11223;49.968;9.062;2022-07-01T17:16:52;2.95;;;1.30;;
22113;SDS011;11223;49.968;9.062;2022-07-01T17:20:21;1.88;;;1.25;;
22113;SDS011;11223;49.968;9.062;2022-07-01T17:23:49;1.30;;;1.20;;
22113;SDS011;11223;49.968;9.062;2022-07-01T17:31:00;2.38;;;1.50;;
22113;SDS011;11223;49.968;9.062;2022-07-01T17:34:08;2.00;;;1.35;;
22113;SDS011;11223;49.968;9.062;2022-07-01T17:37:35;1.30;;;1.20;;
22113;SDS011;11223;49.968;9.062;2022-07-01T17:40:43;3.03;;;1.30;;
22113;SDS011;11223;49.968;9.062;2022-07-01T17:44:10;1.90;;;1.50;;
22113;SDS011;11223;49.968;9.062;2022-07-01T17:47:22;2.33;;;1.52;;
22113;SDS011;11223;49.968;9.062;2022-07-01T17:50:48;3.55;;;1.70;;
22113;SDS011;11223;49.968;9.062;2022-07-01T17:57:40;2.15;;;1.52;;
22113;SDS011;11223;49.968;9.062;2022-07-01T18:04:33;2.00;;;1.80;;
22113;SDS011;11223;49.968;9.062;2022-07-01T18:07:50;3.70;;;1.60;;
22113;SDS011;11223;49.968;9.062;2022-07-01T18:11:37;2.72;;;1.65;;
22113;SDS011;11223;49.968;9.062;2022-07-01T18:14:13;1.85;;;1.27;;
22113;SDS011;11223;49.968;9.062;2022-07-01T18:17:52;3.05;;;1.67;;
22113;SDS011;11223;49.968;9.062;2022-07-01T18:21:23;2.00;;;1.45;;
22113;SDS011;11223;49.968;9.062;2022-07-01T18:24:50;2.03;;;1.60;;
22113;SDS011;11223;49.968;9.062;2022-07-01T18:28:18;2.55;;;1.83;;
22113;SDS011;11223;49.968;9.062;2022-07-01T18:31:39;2.28;;;2.00;;
22113;SDS011;11223;49.968;9.062;2022-07-01T18:38:17;2.78;;;1.60;;
22113;SDS011;11223;49.968;9.062;2022-07-01T18:41:44;5.93;;;1.70;;
22113;SDS011;11223;49.968;9.062;2022-07-01T18:48:27;4.47;;;2.55;;
22113;SDS011;11223;49.968;9.062;2022-07-01T18:51:53;2.05;;;1.65;;
22113;SDS011;11223;49.968;9.062;2022-07-01T18:55:19;2.22;;;2.03;;
22113;SDS011;11223;49.968;9.062;2022-07-01T18:58:46;2.53;;;2.25;;
22113;SDS011;11223;49.968;9.062;2022-07-01T19:02:13;3.90;;;2.20;;
22113;SDS011;11223;49.968;9.062;2022-07-01T19:05:38;3.15;;;2.50;;
22113;SDS011;11223;49.968;9.062;2022-07-01T19:09:05;2.42;;;2.22;;
22113;SDS011;11223;49.968;9.062;2022-07-01T19:12:31;3.15;;;2.85;;
22113;SDS011;11223;49.968;9.062;2022-07-01T19:15:38;3.08;;;2.83;;
22113;SDS011;11223;49.968;9.062;2022-07-01T19:18:54;4.30;;;2.90;;
22113;SDS011;11223;49.968;9.062;2022-07-01T19:22:01;2.95;;;2.55;;
22113;SDS011;11223;49.968;9.062;2022-07-01T19:25:27;3.17;;;2.97;;
22113;SDS011;11223;49.968;9.062;2022-07-01T19:28:54;3.00;;;2.80;;
22113;SDS011;11223;49.968;9.062;2022-07-01T19:32:20;3.05;;;2.55;;
22113;SDS011;11223;49.968;9.062;2022-07-01T19:35:46;3.58;;;2.80;;
22113;SDS011;11223;49.968;9.062;2022-07-01T19:39:13;2.90;;;2.70;;
22113;SDS011;11223;49.968;9.062;2022-07-01T19:42:39;2.63;;;2.42;;
22113;SDS011;11223;49.968;9.062;2022-07-01T19:45:56;4.70;;;3.30;;
22113;SDS011;11223;49.968;9.062;2022-07-01T19:55:36;3.45;;;3.15;;
22113;SDS011;11223;49.968;9.062;2022-07-01T19:58:42;3.55;;;3.00;;
22113;SDS011;11223;49.968;9.062;2022-07-01T20:01:39;3.17;;;2.97;;
22113;SDS011;11223;49.968;9.062;2022-07-01T20:04:45;3.38;;;3.08;;
22113;SDS011;11223;49.968;9.062;2022-07-01T20:08:12;3.38;;;3.00;;
22113;SDS011;11223;49.968;9.062;2022-07-01T20:11:19;3.28;;;3.00;;
22113;SDS011;11223;49.968;9.062;2022-07-01T20:14:45;3.45;;;3.22;;
22113;SDS011;11223;49.968;9.062;2022-07-01T20:18:12;4.03;;;3.42;;
22113;SDS011;11223;49.968;9.062;2022-07-01T20:21:38;4.13;;;3.20;;
22113;SDS011;11223;49.968;9.062;2022-07-01T20:25:04;5.28;;;3.60;;
22113;SDS011;11223;49.968;9.062;2022-07-01T20:28:11;3.83;;;3.63;;
22113;SDS011;11223;49.968;9.062;2022-07-01T20:31:37;3.70;;;3.40;;
22113;SDS011;11223;49.968;9.062;2022-07-01T20:38:30;3.80;;;3.50;;
22113;SDS011;11223;49.968;9.062;2022-07-01T20:41:36;3.88;;;3.67;;
22113;SDS011;11223;49.968;9.062;2022-07-01T20:45:02;3.72;;;3.47;;
22113;SDS011;11223;49.968;9.062;2022-07-01T20:48:29;3.25;;;3.05;;
22113;SDS011;11223;49.968;9.062;2022-07-01T20:51:55;4.32;;;3.75;;
22113;SDS011;11223;49.968;9.062;2022-07-01T20:55:01;3.55;;;3.25;;
22113;SDS011;11223;49.968;9.062;2022-07-01T20:58:27;3.90;;;3.60;;
22113;SDS011;11223;49.968;9.062;2022-07-01T21:01:54;3.42;;;3.13;;
22113;SDS011;11223;49.968;9.062;2022-07-01T21:05:00;3.90;;;3.60;;
22113;SDS011;11223;49.968;9.062;2022-07-01T21:11:43;3.80;;;3.50;;
22113;SDS011;11223;49.968;9.062;2022-07-01T21:15:10;3.92;;;3.72;;
22113;SDS011;11223;49.968;9.062;2022-07-01T21:18:16;4.57;;;4.18;;
22113;SDS011;11223;49.968;9.062;2022-07-01T21:21:43;4.00;;;3.58;;
22113;SDS011;11223;49.968;9.062;2022-07-01T21:24:49;3.47;;;3.28;;
22113;SDS011;11223;49.968;9.062;2022-07-01T21:28:16;6.95;;;4.28;;
22113;SDS011;11223;49.968;9.062;2022-07-01T21:31:42;5.18;;;3.25;;
22113;SDS011;11223;49.968;9.062;2022-07-01T21:35:08;4.53;;;4.13;;
22113;SDS011;11223;49.968;9.062;2022-07-01T21:38:15;4.03;;;3.72;;
22113;SDS011;11223;49.968;9.062;2022-07-01T21:41:22;4.05;;;3.75;;
22113;SDS011;11223;49.968;9.062;2022-07-01T21:44:49;5.72;;;4.40;;
22113;SDS011;11223;49.968;9.062;2022-07-01T21:47:53;5.28;;;3.55;;
22113;SDS011;11223;49.968;9.062;2022-07-01T21:51:11;5.20;;;4.70;;
22113;SDS011;11223;49.968;9.062;2022-07-01T21:54:37;4.07;;;3.78;;
22113;SDS011;11223;49.968;9.062;2022-07-01T21:58:04;5.35;;;4.75;;
22113;SDS011;11223;49.968;9.062;2022-07-01T22:01:30;5.03;;;4.53;;
22113;SDS011;11223;49.968;9.062;2022-07-01T22:04:37;4.38;;;4.03;;
22113;SDS011;11223;49.968;9.062;2022-07-01T22:08:03;5.97;;;4.53;;
22113;SDS011;11223;49.968;9.062;2022-07-01T22:11:10;4.70;;;4.30;;
22113;SDS011;11223;49.968;9.062;2022-07-01T22:14:15;6.13;;;4.72;;
22113;SDS011;11223;49.968;9.062;2022-07-01T22:17:46;8.60;;;4.30;;
22113;SDS011;11223;49.968;9.062;2022-07-01T22:24:39;4.32;;;3.95;;
22113;SDS011;11223;49.968;9.062;2022-07-01T22:28:06;4.78;;;4.38;;
22113;SDS011;11223;49.968;9.062;2022-07-01T22:31:32;4.90;;;4.55;;
22113;SDS011;11223;49.968;9.062;2022-07-01T22:34:59;4.97;;;4.57;;
22113;SDS011;11223;49.968;9.062;2022-07-01T22:38:25;5.20;;;4.80;;
22113;SDS011;11223;49.968;9.062;2022-07-01T22:41:51;5.22;;;4.93;;
22113;SDS011;11223;49.968;9.062;2022-07-01T22:45:17;7.00;;;4.90;;
22113;SDS011;11223;49.968;9.062;2022-07-01T22:56:02;4.63;;;4.30;;
22113;SDS011;11223;49.968;9.062;2022-07-01T22:59:34;6.43;;;4.78;;
22113;SDS011;11223;49.968;9.062;2022-07-01T23:06:09;4.68;;;4.32;;
22113;SDS011;11223;49.968;9.062;2022-07-01T23:10:01;4.82;;;4.43;;
22113;SDS011;11223;49.968;9.062;2022-07-01T23:13:00;5.53;;;5.13;;